Long Island, California
Current Conditions -  °F | °C
As of 9:58 PM on Friday 19 Dec 2014 (Local Time) from KSUU Reporting Station
Haze Haze  
Wind Chill: 52°   Ceiling: 600
Heat Index: 52°   Visibility: 4mi
Dew Point: 50°   Wind: 1mph
Humidity: 92%   Direction: 10°N
Pressure: 30.15"   Gusts: NA
Location:  38.2298°N, 121.579°W
Report Text: KSUU 200558Z AUTO 01001KT 4SM R03L/4500FT BR OVC006 11/10 A3015 RMK AO2 SLP217 60000 T01120100 10113 20109 53006 $
Loading
Personal Weather Stations






























Interactive Weather Map New forecast layout! Learn more

10-Day Weather Forecast

Advertisements
Track Severe Weather on mobile